Time;durP1;ratioP1;P1;durP2;ratioP2;P2;SDS_P1;SDS_P2;PMS_P1;PMS_P2;Temp;Humidity;BMP_temperature;BMP_pressure;BME280_temperature;BME280_humidity;BME280_pressure;Samples;Min_cycle;Max_cycle;Signal;HPM_P1;HPM_P2
2021/11/16 00:01:54;;;;;;;;;;;;;;;;;;5046837;28;19909;-45
2021/11/16 00:04:20;;;;;;;;;;;;;;;;;;5045204;28;19962;-46
2021/11/16 00:06:51;;;;;;;;;;;;;;;;;;5060720;28;19917;-45
2021/11/16 00:09:17;;;;;;;;;;;;;;;;;;5053178;28;20292;-48
2021/11/16 00:11:43;;;;;;;;;;;;;;;;;;5046723;28;19970;-44
2021/11/16 00:14:09;;;;;;;;;;;;;;;;;;5046121;28;19930;-44
2021/11/16 00:16:37;;;;;;;;;;;;;;;;;;5046788;28;19915;-47
2021/11/16 00:19:03;;;;;;;;;;;;;;;;;;5045695;28;19917;-46
2021/11/16 00:21:30;;;;;;;;;;;;;;;;;;5046547;28;19909;-47
2021/11/16 00:23:58;;;;;;;;;;;;;;;;;;5047439;28;19909;-45
2021/11/16 00:26:25;;;;;;;;;;;;;;;;;;5045633;28;20474;-46
2021/11/16 00:28:51;;;;;;;;;;;;;;;;;;5046850;28;19921;-46
2021/11/16 00:31:17;;;;;;;;;;;;;;;;;;5046795;28;19916;-47
2021/11/16 00:33:43;;;;;;;;;;;;;;;;;;5047577;28;19917;-47
2021/11/16 00:36:09;;;;;;;;;;;;;;;;;;5054939;28;20434;-46
2021/11/16 00:38:36;;;;;;;;;;;;;;;;;;5067646;28;19912;-47
2021/11/16 00:41:01;;;;;;;;;;;;;;;;;;5066893;28;20256;-50
2021/11/16 00:43:28;;;;;;;;;;;;;;;;;;5062867;28;19916;-47
2021/11/16 00:45:56;;;;;;;;;;;;;;;;;;5055964;28;19916;-47
2021/11/16 00:48:23;;;;;;;;;;;;;;;;;;5065849;28;20379;-46
2021/11/16 00:50:51;;;;;;;;;;;;;;;;;;5066632;28;19916;-50
2021/11/16 00:53:17;;;;;;;;;;;;;;;;;;5065432;28;19923;-49
2021/11/16 00:55:43;;;;;;;;;;;;;;;;;;5048363;28;19916;-47
2021/11/16 00:58:09;;;;;;;;;;;;;;;;;;5046942;28;20372;-50
2021/11/16 01:00:35;;;;;;;;;;;;;;;;;;5046541;28;19917;-47
2021/11/16 01:03:01;;;;;;;;;;;;;;;;;;5051031;28;20580;-46
2021/11/16 01:05:27;;;;;;;;;;;;;;;;;;5053335;28;20011;-48
2021/11/16 01:07:53;;;;;;;;;;;;;;;;;;5046557;28;20384;-49
2021/11/16 01:10:19;;;;;;;;;;;;;;;;;;5046156;28;20383;-49
2021/11/16 01:12:45;;;;;;;;;;;;;;;;;;5045990;28;19920;-50
2021/11/16 01:15:10;;;;;;;;;;;;;;;;;;5045951;28;19920;-47
2021/11/16 01:17:36;;;;;;;;;;;;;;;;;;5046735;28;19955;-46
2021/11/16 01:20:02;;;;;;;;;;;;;;;;;;5044993;28;20398;-46
2021/11/16 01:22:29;;;;;;;;;;;;;;;;;;5062377;28;19935;-47
2021/11/16 01:24:55;;;;;;;;;;;;;;;;;;5065887;28;19908;-50
2021/11/16 01:27:21;;;;;;;;;;;;;;;;;;5065439;28;19999;-50
2021/11/16 01:29:48;;;;;;;;;;;;;;;;;;5059096;28;20454;-47
2021/11/16 01:32:27;;;;;;;;;;;;;;;;;;5045495;28;20402;-48
2021/11/16 01:34:54;;;;;;;;;;;;;;;;;;5045250;28;19923;-49
2021/11/16 01:37:20;;;;;;;;;;;;;;;;;;5045774;28;19962;-48
2021/11/16 01:39:46;;;;;;;;;;;;;;;;;;5045426;28;19924;-49
2021/11/16 01:42:12;;;;;;;;;;;;;;;;;;5045443;28;19913;-48
2021/11/16 01:44:38;;;;;;;;;;;;;;;;;;5046440;28;19916;-47
2021/11/16 01:47:04;;;;;;;;;;;;;;;;;;5045282;28;19948;-50
2021/11/16 01:49:30;;;;;;;;;;;;;;;;;;5057706;28;20359;-48
2021/11/16 01:51:56;;;;;;;;;;;;;;;;;;5045673;28;20392;-46
2021/11/16 01:54:22;;;;;;;;;;;;;;;;;;5045298;28;19913;-46
2021/11/16 01:56:49;;;;;;;;;;;;;;;;;;5045337;28;19969;-47
2021/11/16 01:59:18;;;;;;;;;;;;;;;;;;5045096;28;20410;-49
2021/11/16 02:01:45;;;;;;;;;;;;;;;;;;5044890;28;19914;-46
2021/11/16 02:04:12;;;;;;;;;;;;;;;;;;5044772;28;19913;-47
2021/11/16 02:06:38;;;;;;;;;;;;;;;;;;5046027;28;19966;-47
2021/11/16 02:09:04;;;;;;;;;;;;;;;;;;5045414;28;19913;-49
2021/11/16 02:11:30;;;;;;;;;;;;;;;;;;5044527;28;20641;-48
2021/11/16 02:13:57;;;;;;;;;;;;;;;;;;5045119;28;20387;-45
2021/11/16 02:16:23;;;;;;;;;;;;;;;;;;5044870;28;19912;-49
2021/11/16 02:18:49;;;;;;;;;;;;;;;;;;5044794;28;20308;-46
2021/11/16 02:21:16;;;;;;;;;;;;;;;;;;5044639;28;19920;-50
2021/11/16 02:23:43;;;;;;;;;;;;;;;;;;5044974;28;19913;-48
2021/11/16 02:26:09;;;;;;;;;;;;;;;;;;5045675;28;20338;-48
2021/11/16 02:28:35;;;;;;;;;;;;;;;;;;5045465;28;19962;-52
2021/11/16 02:31:01;;;;;;;;;;;;;;;;;;5044527;28;20000;-49
2021/11/16 02:33:28;;;;;;;;;;;;;;;;;;5044357;28;20531;-50
2021/11/16 02:35:54;;;;;;;;;;;;;;;;;;5044828;28;19916;-48
2021/11/16 02:38:21;;;;;;;;;;;;;;;;;;5044903;28;20504;-50
2021/11/16 02:40:46;;;;;;;;;;;;;;;;;;5050780;28;19974;-52
2021/11/16 02:43:12;;;;;;;;;;;;;;;;;;5064754;28;20407;-53
2021/11/16 02:45:38;;;;;;;;;;;;;;;;;;5065603;28;19965;-52
2021/11/16 02:48:13;;;;;;;;;;;;;;;;;;5064263;28;20379;-52
2021/11/16 02:50:39;;;;;;;;;;;;;;;;;;5055973;28;19963;-48
2021/11/16 02:53:05;;;;;;;;;;;;;;;;;;5045231;28;19936;-51
2021/11/16 02:55:31;;;;;;;;;;;;;;;;;;5044794;28;19920;-51
2021/11/16 02:57:57;;;;;;;;;;;;;;;;;;5044180;28;20489;-52
2021/11/16 03:00:23;;;;;;;;;;;;;;;;;;5057254;28;20011;-51
2021/11/16 03:02:49;;;;;;;;;;;;;;;;;;5044634;28;19908;-47
2021/11/16 03:05:15;;;;;;;;;;;;;;;;;;5044481;28;19909;-47
2021/11/16 03:07:46;;;;;;;;;;;;;;;;;;5044654;28;20394;-49
2021/11/16 03:10:12;;;;;;;;;;;;;;;;;;5043814;28;19948;-50
2021/11/16 03:12:38;;;;;;;;;;;;;;;;;;5044929;28;19975;-47
2021/11/16 03:15:04;;;;;;;;;;;;;;;;;;5056041;28;20012;-48
2021/11/16 03:17:29;;;;;;;;;;;;;;;;;;5064255;28;20426;-47
2021/11/16 03:19:55;;;;;;;;;;;;;;;;;;5061873;28;20625;-47
2021/11/16 03:22:24;;;;;;;;;;;;;;;;;;5044339;28;19913;-47
2021/11/16 03:24:51;;;;;;;;;;;;;;;;;;5044510;28;19963;-48
2021/11/16 03:27:19;;;;;;;;;;;;;;;;;;5044581;28;19913;-48
2021/11/16 03:29:47;;;;;;;;;;;;;;;;;;5044265;28;20382;-48
2021/11/16 03:32:17;;;;;;;;;;;;;;;;;;5044014;28;19958;-48
2021/11/16 03:34:43;;;;;;;;;;;;;;;;;;5044573;28;19966;-50
2021/11/16 03:37:10;;;;;;;;;;;;;;;;;;5045352;28;19913;-48
2021/11/16 03:39:36;;;;;;;;;;;;;;;;;;5044718;28;19923;-49
2021/11/16 03:42:01;;;;;;;;;;;;;;;;;;5044585;28;20201;-49
2021/11/16 03:44:27;;;;;;;;;;;;;;;;;;5045688;28;19917;-47
2021/11/16 03:46:53;;;;;;;;;;;;;;;;;;5047473;28;19920;-49
2021/11/16 03:49:19;;;;;;;;;;;;;;;;;;5047696;28;19909;-48
2021/11/16 03:51:47;;;;;;;;;;;;;;;;;;5047694;28;19983;-49
2021/11/16 03:54:13;;;;;;;;;;;;;;;;;;5060546;28;20505;-50
2021/11/16 03:56:39;;;;;;;;;;;;;;;;;;5068403;28;20383;-47
2021/11/16 03:59:05;;;;;;;;;;;;;;;;;;5068192;28;19970;-48
2021/11/16 04:01:34;;;;;;;;;;;;;;;;;;5067462;28;19917;-49
2021/11/16 04:04:01;;;;;;;;;;;;;;;;;;5063659;28;19963;-48
2021/11/16 04:06:27;;;;;;;;;;;;;;;;;;5047425;28;19909;-49
2021/11/16 04:08:52;;;;;;;;;;;;;;;;;;5047607;28;19963;-52
2021/11/16 04:11:18;;;;;;;;;;;;;;;;;;5047199;28;19920;-47
2021/11/16 04:13:45;;;;;;;;;;;;;;;;;;5048385;28;20012;-48
2021/11/16 04:16:11;;;;;;;;;;;;;;;;;;5065792;28;19909;-48
2021/11/16 04:18:38;;;;;;;;;;;;;;;;;;5067532;28;19984;-47
2021/11/16 04:21:04;;;;;;;;;;;;;;;;;;5067375;28;19944;-48
2021/11/16 04:23:30;;;;;;;;;;;;;;;;;;5050001;28;20198;-48
2021/11/16 04:25:56;;;;;;;;;;;;;;;;;;5047429;28;19916;-49
2021/11/16 04:28:22;;;;;;;;;;;;;;;;;;5047120;28;20414;-47
2021/11/16 04:30:48;;;;;;;;;;;;;;;;;;5047376;28;19986;-48
2021/11/16 04:33:14;;;;;;;;;;;;;;;;;;5046457;28;19913;-48
2021/11/16 04:35:40;;;;;;;;;;;;;;;;;;5047168;28;19936;-50
2021/11/16 04:38:06;;;;;;;;;;;;;;;;;;5047656;28;20354;-48
2021/11/16 04:40:33;;;;;;;;;;;;;;;;;;5046929;28;20203;-47
2021/11/16 04:43:00;;;;;;;;;;;;;;;;;;5046934;28;20248;-49
2021/11/16 04:45:26;;;;;;;;;;;;;;;;;;5045978;28;20625;-48
2021/11/16 04:48:05;;;;;;;;;;;;;;;;;;5046303;28;19909;-49
2021/11/16 04:51:07;;;;;;;;;;;;;;;;;;5046640;28;20415;-48
2021/11/16 05:04:31;;;;;;;;;;;;;;;;;;5060621;28;19948;-51
2021/11/16 05:06:57;;;;;;;;;;;;;;;;;;5046290;28;19909;-50
2021/11/16 05:09:23;;;;;;;;;;;;;;;;;;5046018;28;19916;-52
2021/11/16 05:11:49;;;;;;;;;;;;;;;;;;5046306;28;20339;-52
2021/11/16 05:14:16;;;;;;;;;;;;;;;;;;5045810;28;20369;-51
2021/11/16 05:16:42;;;;;;;;;;;;;;;;;;5057921;28;19920;-50
2021/11/16 05:19:08;;;;;;;;;;;;;;;;;;5066699;28;20307;-51
2021/11/16 05:21:34;;;;;;;;;;;;;;;;;;5065842;28;19919;-49
2021/11/16 05:24:00;;;;;;;;;;;;;;;;;;5065290;28;19912;-50
2021/11/16 05:26:27;;;;;;;;;;;;;;;;;;5048973;28;19913;-52
2021/11/16 05:28:54;;;;;;;;;;;;;;;;;;5046140;28;19912;-48
2021/11/16 05:31:20;;;;;;;;;;;;;;;;;;5044694;28;19909;-51
2021/11/16 05:33:48;;;;;;;;;;;;;;;;;;5045806;28;20397;-52
2021/11/16 05:36:15;;;;;;;;;;;;;;;;;;5045183;28;19944;-51
2021/11/16 05:38:41;;;;;;;;;;;;;;;;;;5045850;28;19923;-53
2021/11/16 05:41:07;;;;;;;;;;;;;;;;;;5056576;28;19999;-50
2021/11/16 05:43:33;;;;;;;;;;;;;;;;;;5065289;28;20504;-52
2021/11/16 05:45:59;;;;;;;;;;;;;;;;;;5065108;28;20317;-49
2021/11/16 05:48:25;;;;;;;;;;;;;;;;;;5065281;28;19915;-48
2021/11/16 05:50:51;;;;;;;;;;;;;;;;;;5058547;28;19920;-48
2021/11/16 05:53:17;;;;;;;;;;;;;;;;;;5045396;28;20364;-48
2021/11/16 05:55:43;;;;;;;;;;;;;;;;;;5059209;28;19920;-47
2021/11/16 05:58:09;;;;;;;;;;;;;;;;;;5066135;28;19916;-48
2021/11/16 06:00:35;;;;;;;;;;;;;;;;;;5052439;28;19912;-48
2021/11/16 06:03:01;;;;;;;;;;;;;;;;;;5045348;28;19931;-51
2021/11/16 06:05:27;;;;;;;;;;;;;;;;;;5045133;28;19904;-48
2021/11/16 06:07:53;;;;;;;;;;;;;;;;;;5044546;28;20548;-48
2021/11/16 06:10:20;;;;;;;;;;;;;;;;;;5044729;28;19917;-51
2021/11/16 06:12:47;;;;;;;;;;;;;;;;;;5045112;28;19917;-47
2021/11/16 06:15:13;;;;;;;;;;;;;;;;;;5044587;28;19916;-48
2021/11/16 06:17:39;;;;;;;;;;;;;;;;;;5045799;28;20307;-49
2021/11/16 06:20:04;;;;;;;;;;;;;;;;;;5045006;28;19916;-52
2021/11/16 06:22:31;;;;;;;;;;;;;;;;;;5045705;28;20465;-51
2021/11/16 06:24:56;;;;;;;;;;;;;;;;;;5046249;28;19939;-50
2021/11/16 06:27:22;;;;;;;;;;;;;;;;;;5058887;28;20415;-51
2021/11/16 06:29:48;;;;;;;;;;;;;;;;;;5066605;28;19999;-51
2021/11/16 06:32:14;;;;;;;;;;;;;;;;;;5066321;28;19927;-49
2021/11/16 06:34:40;;;;;;;;;;;;;;;;;;5064779;28;19916;-48
2021/11/16 06:37:06;;;;;;;;;;;;;;;;;;5067222;28;19925;-49
2021/11/16 06:39:32;;;;;;;;;;;;;;;;;;5066440;28;19951;-51
2021/11/16 06:41:59;;;;;;;;;;;;;;;;;;5064651;28;19908;-52
2021/11/16 06:44:25;;;;;;;;;;;;;;;;;;5066128;28;19930;-52
2021/11/16 06:46:52;;;;;;;;;;;;;;;;;;5052339;28;19920;-49
2021/11/16 06:49:19;;;;;;;;;;;;;;;;;;5061230;28;19912;-48
2021/11/16 06:51:45;;;;;;;;;;;;;;;;;;5066500;28;19912;-50
2021/11/16 06:54:11;;;;;;;;;;;;;;;;;;5064032;28;19912;-49
2021/11/16 06:56:37;;;;;;;;;;;;;;;;;;5047049;28;19913;-48
2021/11/16 06:59:03;;;;;;;;;;;;;;;;;;5057222;28;20286;-48
2021/11/16 07:01:30;;;;;;;;;;;;;;;;;;5051819;28;20028;-48
2021/11/16 07:03:59;;;;;;;;;;;;;;;;;;5046051;28;19938;-52
2021/11/16 07:06:24;;;;;;;;;;;;;;;;;;5062264;28;20401;-50
2021/11/16 07:08:50;;;;;;;;;;;;;;;;;;5065082;28;19916;-52
2021/11/16 07:11:17;;;;;;;;;;;;;;;;;;5059105;28;19917;-51
2021/11/16 07:13:43;;;;;;;;;;;;;;;;;;5046053;28;20004;-48
2021/11/16 07:16:08;;;;;;;;;;;;;;;;;;5059688;28;20003;-51
2021/11/16 07:18:34;;;;;;;;;;;;;;;;;;5056813;28;19917;-50
2021/11/16 07:21:00;;;;;;;;;;;;;;;;;;5069809;28;19916;-52
2021/11/16 07:23:26;;;;;;;;;;;;;;;;;;5053650;28;19908;-52
2021/11/16 07:25:52;;;;;;;;;;;;;;;;;;5049983;28;19953;-53
2021/11/16 07:28:18;;;;;;;;;;;;;;;;;;5049332;28;20371;-51
2021/11/16 07:30:44;;;;;;;;;;;;;;;;;;5049595;28;19989;-50
2021/11/16 07:33:14;;;;;;;;;;;;;;;;;;5049946;28;20019;-48
2021/11/16 07:35:40;;;;;;;;;;;;;;;;;;5066753;28;20382;-49
2021/11/16 07:38:06;;;;;;;;;;;;;;;;;;5070211;28;19909;-51
2021/11/16 07:40:33;;;;;;;;;;;;;;;;;;5069274;28;19961;-51
2021/11/16 07:42:59;;;;;;;;;;;;;;;;;;5068241;28;19936;-48
2021/11/16 07:45:25;;;;;;;;;;;;;;;;;;5068875;28;20585;-50
2021/11/16 07:47:51;;;;;;;;;;;;;;;;;;5068106;28;19965;-49
2021/11/16 07:50:17;;;;;;;;;;;;;;;;;;5060926;28;19948;-48
2021/11/16 07:52:45;;;;;;;;;;;;;;;;;;5049538;28;19991;-48
2021/11/16 07:55:11;;;;;;;;;;;;;;;;;;5051851;28;19917;-49
2021/11/16 07:57:36;;;;;;;;;;;;;;;;;;5050748;28;19919;-50
2021/11/16 08:00:02;;;;;;;;;;;;;;;;;;5054787;28;19917;-51
2021/11/16 08:02:29;;;;;;;;;;;;;;;;;;5068643;28;19916;-50
2021/11/16 08:05:07;;;;;;;;;;;;;;;;;;5054642;28;19934;-49
2021/11/16 08:07:49;;;;;;;;;;;;;;;;;;5061651;28;20343;-50
2021/11/16 08:10:22;;;;;;;;;;;;;;;;;;5048904;28;19917;-49
2021/11/16 08:12:51;;;;;;;;;;;;;;;;;;5064417;28;20003;-49
2021/11/16 08:15:17;;;;;;;;;;;;;;;;;;5068602;28;20398;-49
2021/11/16 08:17:44;;;;;;;;;;;;;;;;;;5068197;28;20012;-51
2021/11/16 08:20:10;;;;;;;;;;;;;;;;;;5056136;28;19917;-51
2021/11/16 08:22:36;;;;;;;;;;;;;;;;;;5053777;28;19970;-50
2021/11/16 08:25:02;;;;;;;;;;;;;;;;;;5056448;28;19909;-51
2021/11/16 08:27:27;;;;;;;;;;;;;;;;;;5053333;28;20002;-51
2021/11/16 08:29:54;;;;;;;;;;;;;;;;;;5066873;28;20364;-52
2021/11/16 08:32:21;;;;;;;;;;;;;;;;;;5066103;28;20268;-50
2021/11/16 08:34:47;;;;;;;;;;;;;;;;;;5066958;28;19909;-51
2021/11/16 08:37:13;;;;;;;;;;;;;;;;;;5066475;28;19970;-51
2021/11/16 08:39:39;;;;;;;;;;;;;;;;;;5048065;28;19921;-47
2021/11/16 08:42:05;;;;;;;;;;;;;;;;;;5057766;28;19909;-51
2021/11/16 08:44:32;;;;;;;;;;;;;;;;;;5066340;28;19983;-48
2021/11/16 08:46:58;;;;;;;;;;;;;;;;;;5067343;28;19909;-51
2021/11/16 08:49:23;;;;;;;;;;;;;;;;;;5068037;28;19927;-51
2021/11/16 08:51:49;;;;;;;;;;;;;;;;;;5057082;28;19917;-51
2021/11/16 08:54:15;;;;;;;;;;;;;;;;;;5066979;28;19923;-49
2021/11/16 08:56:41;;;;;;;;;;;;;;;;;;5065896;28;19959;-47
2021/11/16 08:59:07;;;;;;;;;;;;;;;;;;5052122;28;19985;-51
2021/11/16 09:01:33;;;;;;;;;;;;;;;;;;5046853;28;19913;-53
2021/11/16 09:03:59;;;;;;;;;;;;;;;;;;5048805;28;19943;-49
2021/11/16 09:06:28;;;;;;;;;;;;;;;;;;5047168;28;20046;-50
2021/11/16 09:08:54;;;;;;;;;;;;;;;;;;5048127;28;20291;-48
2021/11/16 09:11:22;;;;;;;;;;;;;;;;;;5046817;28;19917;-52
2021/11/16 09:13:48;;;;;;;;;;;;;;;;;;5046718;28;19913;-51
2021/11/16 09:16:14;;;;;;;;;;;;;;;;;;5046996;28;19920;-48
2021/11/16 09:18:40;;;;;;;;;;;;;;;;;;5047345;28;19924;-49
2021/11/16 09:21:06;;;;;;;;;;;;;;;;;;5046983;28;19924;-50
2021/11/16 09:23:33;;;;;;;;;;;;;;;;;;5046801;28;19993;-51
2021/11/16 09:26:03;;;;;;;;;;;;;;;;;;5047048;28;20037;-52
2021/11/16 09:28:35;;;;;;;;;;;;;;;;;;5046555;28;19912;-49
2021/11/16 09:31:01;;;;;;;;;;;;;;;;;;5046969;28;20011;-52
2021/11/16 09:33:27;;;;;;;;;;;;;;;;;;5050526;28;20007;-50
2021/11/16 09:35:53;;;;;;;;;;;;;;;;;;5055079;28;19931;-48
2021/11/16 09:38:19;;;;;;;;;;;;;;;;;;5046419;28;19913;-50
2021/11/16 09:40:45;;;;;;;;;;;;;;;;;;5045877;28;19923;-50
2021/11/16 09:43:13;;;;;;;;;;;;;;;;;;5069422;28;20320;-50
2021/11/16 09:45:41;;;;;;;;;;;;;;;;;;5070605;28;19908;-51
2021/11/16 09:48:10;;;;;;;;;;;;;;;;;;5072596;28;20394;-48
2021/11/16 09:50:38;;;;;;;;;;;;;;;;;;5071152;28;19916;-52
2021/11/16 09:53:05;;;;;;;;;;;;;;;;;;5055107;28;20284;-51
2021/11/16 09:55:33;;;;;;;;;;;;;;;;;;5059547;28;20020;-49
2021/11/16 09:57:59;;;;;;;;;;;;;;;;;;5045894;28;20372;-48
2021/11/16 10:00:25;;;;;;;;;;;;;;;;;;5058548;28;19964;-48
2021/11/16 10:02:51;;;;;;;;;;;;;;;;;;5066837;28;20410;-48
2021/11/16 10:05:21;;;;;;;;;;;;;;;;;;5065908;28;19904;-52
2021/11/16 10:07:47;;;;;;;;;;;;;;;;;;5049082;28;19964;-52
2021/11/16 10:10:13;;;;;;;;;;;;;;;;;;5045750;28;19948;-52
2021/11/16 10:12:39;;;;;;;;;;;;;;;;;;5045176;28;19996;-47
2021/11/16 10:15:05;;;;;;;;;;;;;;;;;;5045793;28;19920;-51
2021/11/16 10:17:31;;;;;;;;;;;;;;;;;;5045902;28;20359;-50
2021/11/16 10:19:56;;;;;;;;;;;;;;;;;;5049355;28;19971;-47
2021/11/16 10:22:23;;;;;;;;;;;;;;;;;;5047246;28;20004;-51
2021/11/16 10:24:50;;;;;;;;;;;;;;;;;;5054079;28;19909;-51
2021/11/16 10:27:16;;;;;;;;;;;;;;;;;;5065307;28;19912;-48
2021/11/16 10:29:42;;;;;;;;;;;;;;;;;;5065547;28;19962;-49
2021/11/16 10:32:08;;;;;;;;;;;;;;;;;;5065958;28;19913;-51
2021/11/16 10:34:34;;;;;;;;;;;;;;;;;;5061206;28;19916;-52
2021/11/16 10:37:00;;;;;;;;;;;;;;;;;;5065063;28;19913;-48
2021/11/16 10:39:26;;;;;;;;;;;;;;;;;;5063217;28;20845;-46
2021/11/16 10:41:52;;;;;;;;;;;;;;;;;;5046041;28;19913;-50
2021/11/16 10:44:21;;;;;;;;;;;;;;;;;;5045377;28;19909;-49
2021/11/16 10:46:47;;;;;;;;;;;;;;;;;;5045337;28;20296;-49
2021/11/16 10:49:14;;;;;;;;;;;;;;;;;;5045699;28;19908;-47
2021/11/16 10:51:41;;;;;;;;;;;;;;;;;;5048743;28;19913;-49
2021/11/16 10:54:11;;;;;;;;;;;;;;;;;;5055479;28;19917;-48
2021/11/16 10:56:37;;;;;;;;;;;;;;;;;;5056898;28;19920;-49
2021/11/16 10:59:02;;;;;;;;;;;;;;;;;;5069702;28;19912;-49
2021/11/16 11:01:28;;;;;;;;;;;;;;;;;;5057097;28;20572;-48
2021/11/16 11:03:55;;;;;;;;;;;;;;;;;;5056824;28;19917;-48
2021/11/16 11:06:21;;;;;;;;;;;;;;;;;;5069705;28;19912;-48
2021/11/16 11:08:48;;;;;;;;;;;;;;;;;;5062319;28;19938;-49
2021/11/16 11:11:15;;;;;;;;;;;;;;;;;;5053889;28;19916;-48
2021/11/16 11:13:41;;;;;;;;;;;;;;;;;;5049094;28;19913;-49
2021/11/16 11:16:07;;;;;;;;;;;;;;;;;;5068745;28;20467;-48
2021/11/16 11:18:33;;;;;;;;;;;;;;;;;;5069714;28;19919;-49
2021/11/16 11:20:59;;;;;;;;;;;;;;;;;;5069981;28;20003;-48
2021/11/16 11:23:26;;;;;;;;;;;;;;;;;;5070042;28;20008;-48
2021/11/16 11:25:53;;;;;;;;;;;;;;;;;;5070593;28;19999;-48
2021/11/16 11:28:30;;;;;;;;;;;;;;;;;;5069055;28;20396;-49
2021/11/16 11:30:56;;;;;;;;;;;;;;;;;;5070513;28;19944;-48
2021/11/16 11:33:21;;;;;;;;;;;;;;;;;;5068152;28;20395;-48
2021/11/16 11:35:47;;;;;;;;;;;;;;;;;;5069843;28;20016;-50
2021/11/16 11:38:13;;;;;;;;;;;;;;;;;;5064030;28;19916;-47
2021/11/16 11:40:40;;;;;;;;;;;;;;;;;;5049594;28;19909;-49
2021/11/16 11:43:06;;;;;;;;;;;;;;;;;;5049276;28;19913;-52
2021/11/16 11:45:34;;;;;;;;;;;;;;;;;;5048600;28;19946;-48
2021/11/16 11:48:00;;;;;;;;;;;;;;;;;;5067205;28;20007;-50
2021/11/16 11:50:26;;;;;;;;;;;;;;;;;;5054084;28;20004;-49
2021/11/16 11:52:53;;;;;;;;;;;;;;;;;;5053285;28;19923;-48
2021/11/16 11:55:19;;;;;;;;;;;;;;;;;;5059284;28;19909;-48
2021/11/16 11:57:44;;;;;;;;;;;;;;;;;;5050765;28;19932;-47
2021/11/16 12:00:11;;;;;;;;;;;;;;;;;;5053899;28;19921;-49
2021/11/16 12:02:37;;;;;;;;;;;;;;;;;;5049306;28;20414;-50
2021/11/16 12:05:03;;;;;;;;;;;;;;;;;;5047898;28;19913;-47
2021/11/16 12:07:29;;;;;;;;;;;;;;;;;;5046820;28;20373;-51
2021/11/16 12:09:56;;;;;;;;;;;;;;;;;;5048185;28;20294;-48
2021/11/16 12:12:23;;;;;;;;;;;;;;;;;;5047369;28;19921;-49
2021/11/16 12:14:49;;;;;;;;;;;;;;;;;;5047493;28;19916;-48
2021/11/16 12:17:15;;;;;;;;;;;;;;;;;;5047136;28;19912;-49
2021/11/16 12:19:41;;;;;;;;;;;;;;;;;;5047041;28;19962;-51
2021/11/16 12:22:06;;;;;;;;;;;;;;;;;;5047237;28;20372;-52
2021/11/16 12:24:33;;;;;;;;;;;;;;;;;;5061123;28;19920;-48
2021/11/16 12:27:00;;;;;;;;;;;;;;;;;;5067230;28;19916;-50
2021/11/16 12:29:26;;;;;;;;;;;;;;;;;;5067322;28;20429;-49
2021/11/16 12:31:52;;;;;;;;;;;;;;;;;;5067995;28;19912;-51
2021/11/16 12:34:18;;;;;;;;;;;;;;;;;;5066717;28;20414;-50
2021/11/16 12:36:44;;;;;;;;;;;;;;;;;;5067144;28;19909;-52
2021/11/16 12:39:10;;;;;;;;;;;;;;;;;;5067181;28;19913;-49
2021/11/16 12:41:37;;;;;;;;;;;;;;;;;;5066890;28;19925;-52
2021/11/16 12:44:03;;;;;;;;;;;;;;;;;;5066778;28;20358;-49
2021/11/16 12:46:30;;;;;;;;;;;;;;;;;;5066315;28;19908;-50
2021/11/16 12:48:56;;;;;;;;;;;;;;;;;;5067192;28;19913;-48
2021/11/16 12:51:22;;;;;;;;;;;;;;;;;;5067209;28;19913;-48
2021/11/16 12:53:48;;;;;;;;;;;;;;;;;;5066911;28;19919;-48
2021/11/16 12:56:14;;;;;;;;;;;;;;;;;;5066385;28;20423;-47
2021/11/16 12:58:40;;;;;;;;;;;;;;;;;;5066909;28;19920;-48
2021/11/16 13:01:09;;;;;;;;;;;;;;;;;;5066764;28;19913;-47
2021/11/16 13:03:35;;;;;;;;;;;;;;;;;;5065947;28;20006;-48
2021/11/16 13:06:02;;;;;;;;;;;;;;;;;;5066425;28;20003;-48
2021/11/16 13:08:28;;;;;;;;;;;;;;;;;;5066338;28;20309;-47
2021/11/16 13:10:54;;;;;;;;;;;;;;;;;;5066782;28;19919;-48
2021/11/16 13:13:20;;;;;;;;;;;;;;;;;;5066069;28;19995;-47
2021/11/16 13:15:46;;;;;;;;;;;;;;;;;;5066217;28;19955;-47
2021/11/16 13:18:12;;;;;;;;;;;;;;;;;;5066351;28;19913;-48
2021/11/16 13:20:38;;;;;;;;;;;;;;;;;;5066169;28;20547;-47
2021/11/16 13:23:04;;;;;;;;;;;;;;;;;;5066165;28;20005;-47
2021/11/16 13:25:32;;;;;;;;;;;;;;;;;;5065464;28;20212;-50
2021/11/16 13:28:00;;;;;;;;;;;;;;;;;;5066061;28;19966;-48
2021/11/16 13:30:26;;;;;;;;;;;;;;;;;;5065725;28;20060;-46
2021/11/16 13:32:52;;;;;;;;;;;;;;;;;;5066580;28;19916;-50
2021/11/16 13:35:17;;;;;;;;;;;;;;;;;;5065608;28;20504;-48
2021/11/16 13:37:43;;;;;;;;;;;;;;;;;;5066042;28;19920;-48
2021/11/16 13:40:09;;;;;;;;;;;;;;;;;;5065018;28;19948;-49
2021/11/16 13:42:35;;;;;;;;;;;;;;;;;;5065336;28;19919;-49
2021/11/16 13:45:01;;;;;;;;;;;;;;;;;;5065743;28;20342;-48
2021/11/16 13:47:39;;;;;;;;;;;;;;;;;;5065309;28;20173;-48
2021/11/16 13:50:06;;;;;;;;;;;;;;;;;;5065586;28;19966;-50
2021/11/16 13:52:35;;;;;;;;;;;;;;;;;;5065347;28;19909;-49
2021/11/16 13:55:01;;;;;;;;;;;;;;;;;;5065787;28;19958;-48
2021/11/16 13:57:27;;;;;;;;;;;;;;;;;;5065231;28;20395;-49
2021/11/16 13:59:53;;;;;;;;;;;;;;;;;;5065900;28;20356;-51
2021/11/16 14:02:19;;;;;;;;;;;;;;;;;;5065228;28;19913;-51
2021/11/16 14:04:45;;;;;;;;;;;;;;;;;;5065272;28;20330;-48
2021/11/16 14:07:10;;;;;;;;;;;;;;;;;;5065359;28;19912;-48
2021/11/16 14:09:36;;;;;;;;;;;;;;;;;;5065161;28;19972;-48
2021/11/16 14:12:02;;;;;;;;;;;;;;;;;;5065293;28;19916;-47
2021/11/16 14:14:31;;;;;;;;;;;;;;;;;;5065005;28;19959;-48
2021/11/16 14:16:56;;;;;;;;;;;;;;;;;;5064325;28;19965;-48
2021/11/16 14:19:23;;;;;;;;;;;;;;;;;;5067137;28;19912;-48
2021/11/16 14:21:51;;;;;;;;;;;;;;;;;;5066851;28;20410;-51
2021/11/16 14:24:17;;;;;;;;;;;;;;;;;;5065068;28;19908;-53
2021/11/16 14:26:44;;;;;;;;;;;;;;;;;;5055093;28;19920;-49
2021/11/16 14:29:10;;;;;;;;;;;;;;;;;;5046132;28;19908;-52
2021/11/16 14:31:36;;;;;;;;;;;;;;;;;;5046514;28;20872;-52
2021/11/16 14:34:02;;;;;;;;;;;;;;;;;;5046187;28;20474;-47
2021/11/16 14:36:29;;;;;;;;;;;;;;;;;;5045791;28;19917;-49
2021/11/16 14:38:55;;;;;;;;;;;;;;;;;;5047273;28;19917;-48
2021/11/16 14:41:27;;;;;;;;;;;;;;;;;;5046430;28;19920;-49
2021/11/16 14:43:52;;;;;;;;;;;;;;;;;;5046459;28;19913;-51
2021/11/16 14:46:19;;;;;;;;;;;;;;;;;;5056990;28;19919;-50
2021/11/16 14:48:46;;;;;;;;;;;;;;;;;;5055154;28;20007;-47
2021/11/16 14:53:41;;;;;;;;;;;;;;;;;;5047343;28;19917;-48
2021/11/16 14:56:07;;;;;;;;;;;;;;;;;;5066345;28;19986;-49
2021/11/16 14:58:32;;;;;;;;;;;;;;;;;;5058162;28;19983;-47
2021/11/16 15:00:58;;;;;;;;;;;;;;;;;;5049608;28;19929;-51
2021/11/16 15:03:24;;;;;;;;;;;;;;;;;;5057688;28;19909;-49
2021/11/16 15:05:50;;;;;;;;;;;;;;;;;;5046556;28;19912;-50
2021/11/16 15:08:21;;;;;;;;;;;;;;;;;;5057954;28;19952;-48
2021/11/16 15:10:47;;;;;;;;;;;;;;;;;;5066212;28;19912;-52
2021/11/16 15:13:13;;;;;;;;;;;;;;;;;;5052758;28;20608;-53
2021/11/16 15:15:39;;;;;;;;;;;;;;;;;;5045697;28;19917;-48
2021/11/16 15:18:05;;;;;;;;;;;;;;;;;;5051634;28;19912;-52
2021/11/16 15:20:59;;;;;;;;;;;;;;;;;;5068546;28;19920;-51
2021/11/16 15:23:19;;;;;;;;;;;;;;;;;;5067254;28;19913;-52
2021/11/16 15:25:45;;;;;;;;;;;;;;;;;;5055112;28;19909;-49
2021/11/16 15:28:11;;;;;;;;;;;;;;;;;;5045573;28;20342;-51
2021/11/16 15:30:37;;;;;;;;;;;;;;;;;;5046542;28;19971;-49
2021/11/16 15:33:05;;;;;;;;;;;;;;;;;;5048364;28;19990;-52
2021/11/16 15:35:31;;;;;;;;;;;;;;;;;;5052340;28;20663;-52
2021/11/16 15:37:57;;;;;;;;;;;;;;;;;;5049484;28;19928;-50
2021/11/16 15:40:25;;;;;;;;;;;;;;;;;;5063819;28;19944;-51
2021/11/16 15:42:51;;;;;;;;;;;;;;;;;;5068912;28;19978;-50
2021/11/16 15:45:22;;;;;;;;;;;;;;;;;;5049410;28;20445;-50
2021/11/16 15:48:04;;;;;;;;;;;;;;;;;;5049224;28;19909;-50
2021/11/16 15:50:36;;;;;;;;;;;;;;;;;;5049321;28;20019;-48
2021/11/16 15:53:17;;;;;;;;;;;;;;;;;;5049720;28;19908;-48
2021/11/16 15:58:28;;;;;;;;;;;;;;;;;;5069058;28;20030;-51
2021/11/16 16:00:55;;;;;;;;;;;;;;;;;;5070536;28;19931;-50
2021/11/16 16:03:21;;;;;;;;;;;;;;;;;;5080769;28;20033;-48
2021/11/16 16:05:46;;;;;;;;;;;;;;;;;;5069321;28;19930;-50
2021/11/16 16:08:14;;;;;;;;;;;;;;;;;;5069134;28;20447;-51
2021/11/16 16:10:39;;;;;;;;;;;;;;;;;;5064573;28;19917;-52
2021/11/16 16:13:05;;;;;;;;;;;;;;;;;;5050000;28;19935;-51
2021/11/16 16:15:31;;;;;;;;;;;;;;;;;;5056265;28;19916;-50
2021/11/16 16:17:57;;;;;;;;;;;;;;;;;;5069040;28;19908;-48
2021/11/16 16:20:24;;;;;;;;;;;;;;;;;;5067723;28;20626;-49
2021/11/16 16:22:51;;;;;;;;;;;;;;;;;;5060614;28;19917;-51
2021/11/16 16:25:17;;;;;;;;;;;;;;;;;;5068134;28;20027;-52
2021/11/16 16:27:46;;;;;;;;;;;;;;;;;;5068748;28;19916;-49
2021/11/16 16:30:13;;;;;;;;;;;;;;;;;;5067482;28;20384;-48
2021/11/16 16:32:40;;;;;;;;;;;;;;;;;;5067074;28;19912;-52
2021/11/16 16:35:06;;;;;;;;;;;;;;;;;;5067268;28;19920;-52
2021/11/16 16:37:33;;;;;;;;;;;;;;;;;;5066911;28;20401;-50
2021/11/16 16:39:59;;;;;;;;;;;;;;;;;;5066627;28;19916;-51
2021/11/16 16:42:24;;;;;;;;;;;;;;;;;;5067132;28;19971;-50
2021/11/16 16:44:51;;;;;;;;;;;;;;;;;;5067008;28;19923;-51
2021/11/16 16:47:18;;;;;;;;;;;;;;;;;;5065845;28;19920;-49
2021/11/16 16:49:45;;;;;;;;;;;;;;;;;;5067038;28;19912;-52
2021/11/16 16:52:12;;;;;;;;;;;;;;;;;;5066050;28;19912;-50
2021/11/16 16:54:38;;;;;;;;;;;;;;;;;;5056464;28;19966;-53
2021/11/16 16:57:04;;;;;;;;;;;;;;;;;;5047744;28;19917;-49
2021/11/16 16:59:30;;;;;;;;;;;;;;;;;;5065122;28;20327;-48